createdAt,value
2017-11-29T16:32:00.604Z,18.00
2017-11-29T16:33:00.573Z,15.00
2017-11-29T16:34:00.530Z,14.50
2017-11-29T16:35:00.530Z,12.90
2017-11-29T16:36:00.496Z,14.60
2017-11-29T16:37:00.521Z,23.20
2017-11-29T16:38:00.448Z,15.60
2017-11-29T16:39:00.459Z,18.80
2017-11-29T16:40:00.449Z,20.40
2017-11-29T16:41:00.572Z,19.90
2017-11-29T16:42:00.476Z,20.50
2017-11-29T16:43:00.670Z,12.40
2017-11-29T16:44:00.837Z,19.60
2017-11-29T16:45:00.334Z,32.60
2017-11-29T16:46:01.168Z,30.30
2017-11-29T16:47:00.286Z,36.30
2017-11-29T16:48:00.251Z,38.00
2017-11-29T16:49:00.235Z,39.40
2017-11-29T16:50:00.208Z,39.90
2017-11-29T16:51:00.174Z,60.40
2017-11-29T16:52:00.167Z,48.30
2017-11-29T16:53:00.236Z,47.30
2017-11-29T16:54:00.141Z,42.20
2017-11-29T16:55:00.122Z,57.60
2017-11-29T16:56:00.103Z,67.20
2017-11-29T16:57:00.075Z,59.10
2017-11-29T16:58:00.068Z,50.60
2017-11-29T16:59:00.065Z,59.70
2017-11-29T17:00:00.034Z,66.90
2017-11-29T17:01:00.007Z,57.60
2017-11-29T17:02:00.022Z,66.50
2017-11-29T17:02:59.966Z,60.10
2017-11-29T17:04:00.008Z,76.90
2017-11-29T17:04:59.920Z,82.00
2017-11-29T17:05:59.917Z,72.40
2017-11-29T17:06:59.887Z,73.20
2017-11-29T17:07:59.864Z,75.10
2017-11-29T17:08:59.849Z,64.10
2017-11-29T17:09:59.814Z,62.20
2017-11-29T17:10:59.815Z,63.80
2017-11-29T17:11:59.792Z,73.60
2017-11-29T17:12:59.766Z,72.00
2017-11-29T17:13:59.768Z,65.40
2017-11-29T17:14:59.777Z,70.30
2017-11-29T17:15:59.736Z,62.00
2017-11-29T17:16:59.746Z,70.10
2017-11-29T17:17:59.696Z,70.60
2017-11-29T17:19:01.754Z,68.80
2017-11-29T17:20:00.296Z,58.20
2017-11-29T17:21:00.455Z,83.60
2017-11-29T17:22:00.562Z,65.20
2017-11-29T17:23:00.552Z,67.10
2017-11-29T17:24:01.458Z,84.10
2017-11-29T17:25:00.421Z,73.80
2017-11-29T17:26:01.334Z,69.90
2017-11-29T17:27:00.364Z,60.60
2017-11-29T17:28:00.449Z,80.90
2017-11-29T17:29:00.315Z,78.30
2017-11-29T17:30:00.002Z,80.30
2017-11-29T17:31:00.294Z,79.50
2017-11-29T17:32:01.223Z,82.00
2017-11-29T17:33:01.730Z,77.60
2017-11-29T17:34:01.211Z,83.00
2017-11-29T17:35:00.336Z,65.40
2017-11-29T17:36:00.780Z,83.90
2017-11-29T17:37:01.219Z,84.00
2017-11-29T17:38:00.931Z,64.20
2017-11-29T17:39:01.048Z,83.90
2017-11-29T17:40:01.758Z,85.00
2017-11-29T17:40:59.697Z,82.90
2017-11-29T17:42:01.448Z,73.50
2017-11-29T17:43:00.928Z,76.20
2017-11-29T17:44:01.343Z,64.10
2017-11-29T17:44:59.859Z,76.20
2017-11-29T17:45:59.719Z,66.90
2017-11-29T17:47:00.959Z,73.60
2017-11-29T17:47:59.763Z,77.60
2017-11-29T17:48:59.561Z,80.10
2017-11-29T17:49:59.433Z,75.30
2017-11-29T17:50:59.349Z,78.10
2017-11-29T17:51:59.239Z,70.00
2017-11-29T17:52:59.039Z,83.30
2017-11-29T17:53:59.008Z,77.60
2017-11-29T17:54:59.008Z,92.70
2017-11-29T17:55:59.005Z,89.70
2017-11-29T17:56:58.959Z,93.90
2017-11-29T17:57:59.041Z,75.80
2017-11-29T17:58:58.917Z,91.70
2017-11-29T17:59:58.917Z,92.40
2017-11-29T18:00:58.894Z,97.50
2017-11-29T18:01:58.872Z,88.70
2017-11-29T18:02:58.852Z,74.00
2017-11-29T18:03:58.854Z,72.20
2017-11-29T18:04:58.809Z,88.90
2017-11-29T18:05:58.785Z,113.40
2017-11-29T18:06:58.773Z,89.30
2017-11-29T18:07:58.748Z,97.70
2017-11-29T18:08:58.813Z,81.70
2017-11-29T18:09:58.725Z,105.40
2017-11-29T18:10:58.694Z,103.60
2017-11-29T18:11:58.683Z,133.50
2017-11-29T18:12:58.678Z,160.60
2017-11-29T18:13:58.661Z,172.10
2017-11-29T18:14:58.648Z,149.00
2017-11-29T18:15:58.610Z,114.80
2017-11-29T18:16:58.579Z,123.80
2017-11-29T18:17:58.573Z,148.30
2017-11-29T18:18:58.557Z,120.70
2017-11-29T18:19:58.582Z,86.80
2017-11-29T18:20:58.517Z,87.70
2017-11-29T18:21:58.483Z,85.40
2017-11-29T18:22:58.489Z,83.90
2017-11-29T18:23:58.467Z,99.20
2017-11-29T18:24:58.442Z,87.10
2017-11-29T18:25:58.431Z,78.40
2017-11-29T18:26:58.419Z,68.60
2017-11-29T18:27:58.384Z,77.10
2017-11-29T18:28:58.371Z,65.40
2017-11-29T18:29:58.365Z,79.20
2017-11-29T18:30:58.345Z,72.60
2017-11-29T18:31:58.324Z,51.00
2017-11-29T18:32:58.297Z,59.50
2017-11-29T18:33:58.302Z,63.10
2017-11-29T18:34:58.256Z,52.20
2017-11-29T18:35:58.230Z,58.30
2017-11-29T18:36:58.218Z,42.00
2017-11-29T18:37:58.199Z,50.60
2017-11-29T18:38:58.188Z,53.10
2017-11-29T18:39:58.162Z,46.50
2017-11-29T18:40:58.128Z,48.70
2017-11-29T18:41:58.206Z,49.90
2017-11-29T18:42:58.145Z,51.80
2017-11-29T18:43:58.085Z,39.60
2017-11-29T18:44:58.046Z,45.80
2017-11-29T18:45:58.046Z,37.40
2017-11-29T18:46:58.031Z,44.80
2017-11-29T18:47:58.009Z,32.00
2017-11-29T18:48:57.992Z,42.40
2017-11-29T18:49:57.957Z,39.30
2017-11-29T18:50:57.963Z,34.50
2017-11-29T18:51:57.940Z,35.40
2017-11-29T18:52:57.921Z,30.40
2017-11-29T18:53:57.924Z,37.10
2017-11-29T18:54:57.890Z,34.30
2017-11-29T18:55:57.864Z,37.70
2017-11-29T18:56:57.831Z,45.40
2017-11-29T18:57:57.833Z,43.00
2017-11-29T18:58:57.801Z,44.10
2017-11-29T18:59:57.773Z,48.50
2017-11-29T19:00:57.763Z,40.20
2017-11-29T19:01:57.746Z,45.90
2017-11-29T19:02:57.723Z,39.90
2017-11-29T19:03:57.712Z,43.20
2017-11-29T19:04:58.422Z,36.70
2017-11-29T19:05:57.680Z,35.40
2017-11-29T19:06:57.660Z,32.60
2017-11-29T19:07:57.637Z,30.90
2017-11-29T19:08:57.610Z,30.90
2017-11-29T19:09:57.606Z,28.80
2017-11-29T19:10:57.574Z,28.90
2017-11-29T19:11:58.427Z,33.70
2017-11-29T19:12:57.538Z,28.70
2017-11-29T19:13:57.519Z,34.20
2017-11-29T19:14:57.578Z,32.30
2017-11-29T19:15:57.507Z,34.60
2017-11-29T19:16:57.469Z,30.40
2017-11-29T19:17:57.439Z,37.00
2017-11-29T19:18:57.435Z,32.00
2017-11-29T19:19:57.401Z,33.70
2017-11-29T19:20:57.401Z,37.90
2017-11-29T19:21:57.364Z,37.60
2017-11-29T19:22:57.339Z,23.90
2017-11-29T19:23:57.332Z,25.10
2017-11-29T19:24:57.320Z,27.30
2017-11-29T19:25:57.307Z,25.40
2017-11-29T19:26:57.294Z,26.70
2017-11-29T19:27:57.311Z,31.30
2017-11-29T19:28:57.238Z,33.10
2017-11-29T19:29:57.210Z,18.60
2017-11-29T19:30:57.186Z,41.50
2017-11-29T19:31:57.183Z,31.90
2017-11-29T19:32:57.183Z,37.10
2017-11-29T19:33:57.141Z,28.20
2017-11-29T19:34:57.123Z,33.00
2017-11-29T19:35:57.101Z,21.80
2017-11-29T19:36:57.085Z,22.30
2017-11-29T19:37:57.072Z,35.90
2017-11-29T19:38:57.089Z,25.30
2017-11-29T19:39:57.045Z,35.60
2017-11-29T19:40:57.013Z,24.40
2017-11-29T19:41:57.003Z,36.20
2017-11-29T19:42:56.977Z,24.50
2017-11-29T19:43:56.977Z,26.10
2017-11-29T19:44:56.954Z,41.80
2017-11-29T19:45:56.940Z,23.20
2017-11-29T19:46:56.916Z,21.70
2017-11-29T19:47:56.926Z,17.20
2017-11-29T19:48:56.943Z,23.90
2017-11-29T19:49:56.950Z,28.60
2017-11-29T19:50:56.827Z,18.70
2017-11-29T19:51:56.809Z,21.30
2017-11-29T19:52:56.793Z,19.90
2017-11-29T19:53:56.784Z,26.40
2017-11-29T19:54:56.762Z,14.40
